createdAt,value
2019-04-07T00:00:03.960Z,99453.44
2019-04-07T00:04:10.921Z,99453.95
2019-04-07T00:08:16.846Z,99453.95
2019-04-07T00:12:24.620Z,99449.04
2019-04-07T00:16:29.820Z,99444.14
2019-04-07T00:20:35.250Z,99449.51
2019-04-07T00:24:40.369Z,99448.09
2019-04-07T00:28:45.515Z,99448.55
2019-04-07T00:32:50.725Z,99445.80
2019-04-07T00:36:55.972Z,99438.72
2019-04-07T00:41:01.411Z,99434.28
2019-04-07T00:45:07.089Z,99437.05
2019-04-07T00:49:13.233Z,99430.32
2019-04-07T00:53:18.799Z,99424.94
2019-04-07T00:57:24.364Z,99422.28
2019-04-07T01:01:29.563Z,99422.27
2019-04-07T01:05:38.544Z,99428.52
2019-04-07T01:09:41.655Z,99428.19
2019-04-07T01:13:47.369Z,99438.98
2019-04-07T01:17:53.510Z,99440.64
2019-04-07T01:21:59.074Z,99438.86
2019-04-07T01:26:04.807Z,99431.85
2019-04-07T01:30:10.662Z,99434.01
2019-04-07T01:34:16.299Z,99429.56
2019-04-07T01:38:22.495Z,99426.45
2019-04-07T01:42:33.408Z,99438.55
2019-04-07T01:46:56.929Z,99436.73
2019-04-07T01:51:39.169Z,99438.27
2019-04-07T01:55:59.548Z,99432.28
2019-04-07T02:00:13.779Z,99437.84
2019-04-07T02:04:28.087Z,99431.73
2019-04-07T02:08:51.801Z,99434.72
2019-04-07T02:13:19.849Z,99432.95
2019-04-07T02:17:34.023Z,99434.11
2019-04-07T02:21:58.372Z,99440.25
2019-04-07T02:26:11.460Z,99433.80
2019-04-07T02:30:33.050Z,99431.56
2019-04-07T02:35:03.631Z,99439.47
2019-04-07T02:39:27.821Z,99437.45
2019-04-07T02:43:52.988Z,99438.18
2019-04-07T02:48:26.582Z,99432.29
2019-04-07T02:52:53.512Z,99440.42
2019-04-07T02:57:20.668Z,99432.13
2019-04-07T03:01:45.344Z,99434.11
2019-04-07T03:06:10.057Z,99442.52
2019-04-07T03:10:44.148Z,99442.03
2019-04-07T03:14:58.492Z,99447.31
2019-04-07T03:19:08.808Z,99449.11
2019-04-07T03:23:31.789Z,99461.92
2019-04-07T03:27:59.181Z,99464.16
2019-04-07T03:32:27.926Z,99458.23
2019-04-07T03:37:16.930Z,99463.39
2019-04-07T03:41:05.561Z,99462.36
2019-04-07T03:45:35.815Z,99462.67
2019-04-07T03:49:59.707Z,99457.69
2019-04-07T03:54:14.233Z,99455.78
2019-04-07T03:58:29.876Z,99450.93
2019-04-07T04:03:00.333Z,99450.39
2019-04-07T04:07:33.961Z,99454.77
2019-04-07T04:11:43.716Z,99457.08
2019-04-07T04:16:15.105Z,99450.03
2019-04-07T04:20:20.439Z,99464.88
2019-04-07T04:24:26.619Z,99472.56
2019-04-07T04:28:31.966Z,99474.98
2019-04-07T04:32:37.233Z,99474.12
2019-04-07T04:36:44.730Z,99467.95
2019-04-07T04:40:50.577Z,99465.25
2019-04-07T04:44:55.948Z,99467.82
2019-04-07T04:49:02.347Z,99465.59
2019-04-07T04:53:09.233Z,99474.31
2019-04-07T04:57:15.059Z,99474.65
2019-04-07T05:01:20.626Z,99477.38
2019-04-07T05:05:25.804Z,99480.58
2019-04-07T05:09:43.197Z,99483.31
2019-04-07T05:13:37.687Z,99483.31
2019-04-07T05:17:43.465Z,99487.05
2019-04-07T05:21:49.484Z,99493.03
2019-04-07T05:25:54.800Z,99499.42
2019-04-07T05:30:02.432Z,99493.32
2019-04-07T05:34:08.031Z,99496.64
2019-04-07T05:38:13.602Z,99502.70
2019-04-07T05:42:18.926Z,99497.84
2019-04-07T05:46:24.995Z,99500.39
2019-04-07T05:50:30.727Z,99505.27
2019-04-07T05:54:37.745Z,99510.86
2019-04-07T05:58:43.896Z,99514.33
2019-04-07T06:02:49.273Z,99516.95
2019-04-07T06:06:56.388Z,99535.85
2019-04-07T06:11:02.461Z,99532.83
2019-04-07T06:15:08.066Z,99538.69
2019-04-07T06:19:13.547Z,99541.93
2019-04-07T06:23:22.747Z,99541.44
2019-04-07T06:27:25.815Z,99542.30
2019-04-07T06:31:32.232Z,99544.27
2019-04-07T06:35:37.996Z,99548.48
2019-04-07T06:39:44.019Z,99551.04
2019-04-07T06:43:49.702Z,99550.53
2019-04-07T06:47:57.256Z,99551.64
2019-04-07T06:52:20.890Z,99555.95
2019-04-07T06:56:35.694Z,99557.00
2019-04-07T07:01:02.150Z,99568.50
2019-04-07T07:05:17.851Z,99559.52
2019-04-07T07:09:35.063Z,99562.83
2019-04-07T07:13:49.920Z,99565.56
2019-04-07T07:18:32.357Z,99567.95
2019-04-07T07:23:00.702Z,99572.03
2019-04-07T07:27:09.392Z,99577.84
2019-04-07T07:31:14.335Z,99569.48
2019-04-07T07:35:19.558Z,99566.86
2019-04-07T07:39:25.096Z,99570.48
2019-04-07T07:43:32.448Z,99570.34
2019-04-07T07:47:38.474Z,99575.34
2019-04-07T07:51:47.370Z,99577.88
2019-04-07T07:55:51.180Z,99577.58
2019-04-07T07:59:56.488Z,99576.45
2019-04-07T08:04:01.965Z,99579.64
2019-04-07T08:08:07.325Z,99579.34
2019-04-07T08:12:12.689Z,99573.45
2019-04-07T08:16:19.107Z,99585.48
2019-04-07T08:20:25.671Z,99593.48
2019-04-07T08:24:31.784Z,99583.67
2019-04-07T08:28:38.173Z,99595.36
2019-04-07T08:32:44.150Z,99598.63
2019-04-07T08:36:49.532Z,99605.24
2019-04-07T08:40:55.203Z,99605.69
2019-04-07T08:45:00.722Z,99608.62
2019-04-07T08:49:06.594Z,99609.65
2019-04-07T08:53:13.765Z,99608.11
2019-04-07T08:57:19.624Z,99619.58
2019-04-07T09:01:25.749Z,99617.16
2019-04-07T09:05:31.790Z,99620.44
2019-04-07T09:09:42.798Z,99619.66
2019-04-07T09:13:50.663Z,99614.26
2019-04-07T09:18:16.076Z,99611.73
2019-04-07T09:22:31.871Z,99617.93
2019-04-07T09:27:02.238Z,99611.94
2019-04-07T09:31:29.421Z,99624.95
2019-04-07T09:35:54.727Z,99621.22
2019-04-07T09:40:18.538Z,99631.47
2019-04-07T09:44:56.307Z,99628.98
2019-04-07T09:49:26.455Z,99622.78
2019-04-07T09:53:50.704Z,99628.83
2019-04-07T09:58:09.282Z,99631.80
2019-04-07T10:02:35.444Z,99625.63
2019-04-07T10:06:58.386Z,99632.11
2019-04-07T10:11:28.537Z,99627.48
2019-04-07T10:15:54.274Z,99631.29
2019-04-07T10:20:34.159Z,99629.14
2019-04-07T10:25:03.188Z,99634.64
2019-04-07T10:29:20.563Z,99638.34
2019-04-07T10:33:47.184Z,99638.80
2019-04-07T10:38:04.437Z,99634.33
2019-04-07T10:42:29.276Z,99643.67
2019-04-07T10:46:42.781Z,99644.14
2019-04-07T10:51:05.659Z,99642.72
2019-04-07T10:55:18.040Z,99634.45
2019-04-07T10:59:49.201Z,99633.42
2019-04-07T11:04:11.617Z,99634.99
2019-04-07T11:08:26.557Z,99633.44
2019-04-07T11:12:51.349Z,99630.41
2019-04-07T11:17:21.557Z,99630.94
2019-04-07T11:21:50.276Z,99630.52
2019-04-07T11:26:20.848Z,99634.27
2019-04-07T11:30:45.470Z,99628.95
2019-04-07T11:34:58.432Z,99620.07
2019-04-07T11:39:24.426Z,99616.09
2019-04-07T11:43:35.923Z,99624.14
2019-04-07T11:48:03.453Z,99618.38
2019-04-07T11:52:23.515Z,99614.83
2019-04-07T11:56:47.711Z,99609.25
2019-04-07T12:01:05.827Z,99615.94
2019-04-07T12:05:33.340Z,99610.75
2019-04-07T12:09:56.310Z,99626.78
2019-04-07T12:14:30.759Z,99610.77
2019-04-07T12:18:50.199Z,99609.86
2019-04-07T12:23:16.012Z,99608.86
2019-04-07T12:27:37.799Z,99612.49
2019-04-07T12:32:18.101Z,99611.04
2019-04-07T12:36:33.303Z,99610.86
2019-04-07T12:41:12.711Z,99611.58
2019-04-07T12:45:12.383Z,99605.95
2019-04-07T12:49:39.183Z,99612.75
2019-04-07T12:54:20.610Z,99617.03
2019-04-07T12:58:44.052Z,99604.23
2019-04-07T13:03:14.551Z,99601.98
2019-04-07T13:07:41.539Z,99601.98
2019-04-07T13:12:04.368Z,99611.34
2019-04-07T13:16:23.858Z,99613.13
2019-04-07T13:20:44.190Z,99606.83
2019-04-07T13:25:11.718Z,99610.30
2019-04-07T13:29:30.164Z,99601.88
2019-04-07T13:33:41.373Z,99600.55
2019-04-07T13:38:01.060Z,99598.94
2019-04-07T13:42:35.711Z,99607.88
2019-04-07T13:46:59.639Z,99607.52
2019-04-07T13:51:15.502Z,99595.78
2019-04-07T13:55:41.611Z,99592.04
2019-04-07T14:00:02.808Z,99595.38
2019-04-07T14:04:34.553Z,99602.11
2019-04-07T14:09:06.922Z,99587.68
2019-04-07T14:13:43.128Z,99599.50
2019-04-07T14:17:58.741Z,99589.22
2019-04-07T14:22:15.537Z,99580.89
2019-04-07T14:26:41.301Z,99578.26
2019-04-07T14:31:06.469Z,99590.84
2019-04-07T14:35:33.652Z,99579.59
2019-04-07T14:39:44.453Z,99579.91
2019-04-07T14:44:05.310Z,99587.43
2019-04-07T14:48:29.360Z,99578.02
2019-04-07T14:53:03.113Z,99579.02
2019-04-07T14:57:24.493Z,99572.94
2019-04-07T15:01:47.342Z,99577.59
2019-04-07T15:05:56.339Z,99581.36
2019-04-07T15:10:17.999Z,99570.19
2019-04-07T15:14:23.352Z,99570.67
2019-04-07T15:18:29.780Z,99568.23
2019-04-07T15:22:34.935Z,99576.93
2019-04-07T15:26:41.263Z,99575.73
2019-04-07T15:30:48.246Z,99580.89
2019-04-07T15:34:53.445Z,99575.30
2019-04-07T15:38:59.460Z,99577.00
2019-04-07T15:43:08.762Z,99576.05
2019-04-07T15:47:12.558Z,99570.15
2019-04-07T15:51:17.675Z,99572.62
2019-04-07T15:55:26.327Z,99574.70
2019-04-07T15:59:31.400Z,99579.39
2019-04-07T16:03:36.772Z,99577.54
2019-04-07T16:07:54.322Z,99579.36
2019-04-07T16:12:00.648Z,99579.80
2019-04-07T16:16:06.085Z,99586.78
2019-04-07T16:20:20.674Z,99595.33
2019-04-07T16:24:21.965Z,99590.86
2019-04-07T16:28:27.418Z,99587.46
2019-04-07T16:32:32.807Z,99593.41
2019-04-07T16:36:41.295Z,99589.11
2019-04-07T16:40:46.743Z,99594.43
2019-04-07T16:44:52.592Z,99593.41
2019-04-07T16:48:58.711Z,99599.22
2019-04-07T16:53:07.569Z,99606.00
2019-04-07T16:57:15.398Z,99614.13
2019-04-07T17:01:20.537Z,99611.47
2019-04-07T17:05:25.712Z,99617.61
2019-04-07T17:09:33.424Z,99628.49
2019-04-07T17:13:41.857Z,99621.41
2019-04-07T17:17:46.527Z,99623.98
2019-04-07T17:21:53.310Z,99628.42
2019-04-07T17:25:58.658Z,99625.44
2019-04-07T17:30:04.838Z,99626.80
2019-04-07T17:34:12.072Z,99623.87
2019-04-07T17:38:18.264Z,99635.66
2019-04-07T17:42:26.263Z,99634.25
2019-04-07T17:46:55.830Z,99636.64
2019-04-07T17:51:21.830Z,99642.59
2019-04-07T17:55:57.541Z,99644.63
2019-04-07T18:00:22.365Z,99645.67
2019-04-07T18:04:52.464Z,99651.18
2019-04-07T18:09:23.543Z,99657.92
2019-04-07T18:13:56.652Z,99657.47
2019-04-07T18:18:21.297Z,99663.55
2019-04-07T18:22:53.929Z,99668.08
2019-04-07T18:27:11.012Z,99679.41
2019-04-07T18:31:24.423Z,99679.93
2019-04-07T18:35:52.208Z,99685.09
2019-04-07T18:40:15.093Z,99688.75
2019-04-07T18:44:45.283Z,99701.95
2019-04-07T18:49:19.143Z,99707.79
2019-04-07T18:54:01.402Z,99716.11
2019-04-07T18:58:22.414Z,99718.12
2019-04-07T19:02:53.463Z,99722.09
2019-04-07T19:07:18.504Z,99723.66
2019-04-07T19:11:42.760Z,99729.53
2019-04-07T19:16:04.091Z,99732.70
2019-04-07T19:20:41.802Z,99738.19
2019-04-07T19:24:58.541Z,99738.19
2019-04-07T19:29:29.420Z,99747.94
2019-04-07T19:34:11.876Z,99745.09
2019-04-07T19:38:30.978Z,99749.87
2019-04-07T19:42:53.404Z,99754.73
2019-04-07T19:47:05.089Z,99754.61
2019-04-07T19:51:32.161Z,99755.70
2019-04-07T19:55:59.802Z,99762.39
2019-04-07T20:00:24.628Z,99752.73
2019-04-07T20:04:37.371Z,99761.46
2019-04-07T20:08:49.345Z,99765.61
2019-04-07T20:13:06.279Z,99762.07
2019-04-07T20:17:34.449Z,99763.61
2019-04-07T20:22:04.713Z,99761.25
2019-04-07T20:26:21.422Z,99763.23
2019-04-07T20:30:49.642Z,99772.20
2019-04-07T20:35:11.541Z,99776.31
2019-04-07T20:39:36.697Z,99777.98
2019-04-07T20:44:07.659Z,99785.33
2019-04-07T20:48:38.155Z,99781.03
2019-04-07T20:52:53.601Z,99779.69
2019-04-07T20:57:34.117Z,99776.55
2019-04-07T21:02:03.403Z,99769.76
2019-04-07T21:06:19.802Z,99768.80
2019-04-07T21:10:37.683Z,99770.71
2019-04-07T21:15:18.257Z,99772.10
2019-04-07T21:19:38.421Z,99769.39
2019-04-07T21:24:03.662Z,99772.07
2019-04-07T21:28:13.646Z,99771.61
2019-04-07T21:32:53.960Z,99771.00
2019-04-07T21:37:34.034Z,99777.97
2019-04-07T21:41:58.365Z,99779.49
2019-04-07T21:46:22.197Z,99781.75
2019-04-07T21:50:44.858Z,99779.37
2019-04-07T21:55:09.846Z,99784.35
2019-04-07T21:59:28.446Z,99785.55
2019-04-07T22:03:56.881Z,99792.11
2019-04-07T22:08:13.052Z,99799.19
2019-04-07T22:12:13.103Z,99797.84
2019-04-07T22:16:18.607Z,99810.17
2019-04-07T22:20:29.223Z,99810.03
2019-04-07T22:24:38.343Z,99816.47
2019-04-07T22:28:44.727Z,99819.64
2019-04-07T22:32:51.308Z,99824.83
2019-04-07T22:36:57.861Z,99825.60
2019-04-07T22:41:06.799Z,99838.83
2019-04-07T22:45:11.756Z,99848.72
2019-04-07T22:49:19.817Z,99849.00
2019-04-07T22:53:28.484Z,99846.61
2019-04-07T22:57:33.800Z,99847.86
2019-04-07T23:01:39.203Z,99845.84
2019-04-07T23:05:44.429Z,99850.19
2019-04-07T23:09:52.565Z,99845.39
2019-04-07T23:13:59.360Z,99852.58
2019-04-07T23:18:07.374Z,99856.95
2019-04-07T23:22:12.630Z,99855.98
2019-04-07T23:26:18.107Z,99856.95
2019-04-07T23:30:23.907Z,99850.59
2019-04-07T23:34:29.279Z,99855.54
2019-04-07T23:38:36.883Z,99863.81
2019-04-07T23:42:43.409Z,99861.19
2019-04-07T23:46:50.914Z,99863.34
2019-04-07T23:50:58.261Z,99856.36
2019-04-07T23:55:04.309Z,99855.05
2019-04-07T23:59:10.364Z,99861.72
